Wednesday, May 23, 2018, 5:21 AM GMT
Back to Local

CYYG, Charlottetown, P. E. I.

Location: , , Canada Lat: 46.283
Local Time: 5:21 AM GMT ( 5:21 GMT) Lon: -63.133
Time Zone: GMT Elev: 157 ft

Show me the last for .
Show Coded

Time T Td Feel RH Dir Speed Gust Alt SLP Vis Weather Sky Remarks
2018-05-23 05:00 55 41 - 58 210° 13 20 29.87 29.88 15 SCT120 OVC200 None
2018-05-23 04:00 55 41 - 58 200° 14 - 29.90 29.90 15 SCT140 OVC220 None
2018-05-23 03:00 54 39 - 58 190° 12 18 29.92 29.93 15 OVC230 None
2018-05-23 02:00 55 36 - 47 200° 14 - 29.95 29.95 15 OVC190 None
2018-05-23 01:00 55 36 - 47 200° 15 - 29.97 29.98 15 OVC190 None
2018-05-23 00:00 57 32 - 38 200° 18 26 29.97 29.98 15 OVC220 None
2018-05-22 23:00 59 34 - 38 200° 16 24 29.98 29.99 15 BKN220 None
2018-05-22 22:00 63 37 - 39 190° 20 26 29.99 30.00 15 SCT170 BKN240 None
2018-05-22 21:00 64 39 - 39 200° 16 23 30.00 30.01 15 FEW170 BKN260 None
2018-05-22 20:00 61 32 - 33 190° 16 23 30.02 30.03 15 FEW220 BKN260 None
2018-05-22 19:00 61 28 - 29 190° 14 - 30.06 30.07 15 BKN230 None
2018-05-22 18:00 61 28 - 29 190° 14 - 30.08 30.09 15 BKN250 Pressure falling rapidly
2018-05-22 17:00 59 27 - 28 190° 13 - 30.12 30.13 15 BKN240 Pressure falling rapidly
2018-05-22 16:00 55 34 - 43 200° 12 - 30.16 30.17 15 BKN240 None
2018-05-22 15:00 54 34 - 46 210° 12 - 30.18 30.19 15 BKN240 None
2018-05-22 14:00 52 34 - 50 190° 5 - 30.19 30.20 15 BKN280 None
2018-05-22 13:00 50 32 47 49 140° 8 - 30.20 30.21 15 BKN260 None
2018-05-22 12:00 46 27 - 45 Variable 2 - 30.21 30.22 15 SCT260 None
2018-05-22 11:00 45 28 42 52 110° 5 - 30.20 30.21 15 SCT260 None
2018-05-22 10:00 37 36 - 93 - Calm - 30.18 30.19 15 FEW270 None
2018-05-22 09:00 32 32 - 100 - Calm - 30.16 30.17 15 FEW270 None
2018-05-22 08:00 30 28 27 92 350° 3 - 30.14 30.14 15 CLR None
2018-05-22 07:01 36 36 33 100 220° 3 - 30.11 30.12 15 CLR None
2018-05-22 07:00 36 34 - 93 Variable 2 - 30.11 30.12 15 CLR None
2018-05-22 06:00 39 34 35 80 240° 6 - 30.10 30.11 15 CLR None

Support USWX by starting your Amazon purchase here.